sensor_id;sensor_type;location;lat;lon;timestamp;P1;durP1;ratioP1;P2;durP2;ratioP2
54191;SDS011;40101;53.002;6.488;2023-03-23T00:01:14;14.88;;;12.35;;
54191;SDS011;40101;53.002;6.488;2023-03-23T00:03:48;23.77;;;12.88;;
54191;SDS011;40101;53.002;6.488;2023-03-23T00:06:15;16.48;;;11.80;;
54191;SDS011;40101;53.002;6.488;2023-03-23T00:08:45;16.67;;;11.30;;
54191;SDS011;40101;53.002;6.488;2023-03-23T00:11:15;11.70;;;10.20;;
54191;SDS011;40101;53.002;6.488;2023-03-23T00:13:43;14.45;;;10.82;;
54191;SDS011;40101;53.002;6.488;2023-03-23T00:16:10;13.85;;;9.90;;
54191;SDS011;40101;53.002;6.488;2023-03-23T00:18:46;14.98;;;9.70;;
54191;SDS011;40101;53.002;6.488;2023-03-23T00:21:17;14.23;;;11.45;;
54191;SDS011;40101;53.002;6.488;2023-03-23T00:24:04;11.55;;;9.60;;
54191;SDS011;40101;53.002;6.488;2023-03-23T00:26:33;14.38;;;10.13;;
54191;SDS011;40101;53.002;6.488;2023-03-23T00:29:00;14.27;;;10.57;;
54191;SDS011;40101;53.002;6.488;2023-03-23T00:31:28;11.02;;;9.55;;
54191;SDS011;40101;53.002;6.488;2023-03-23T00:33:57;14.93;;;10.20;;
54191;SDS011;40101;53.002;6.488;2023-03-23T00:36:23;17.08;;;10.43;;
54191;SDS011;40101;53.002;6.488;2023-03-23T00:38:49;13.43;;;9.20;;
54191;SDS011;40101;53.002;6.488;2023-03-23T00:41:15;13.73;;;10.10;;
54191;SDS011;40101;53.002;6.488;2023-03-23T00:43:40;18.83;;;11.35;;
54191;SDS011;40101;53.002;6.488;2023-03-23T00:46:06;11.77;;;9.73;;
54191;SDS011;40101;53.002;6.488;2023-03-23T00:48:35;15.40;;;9.95;;
54191;SDS011;40101;53.002;6.488;2023-03-23T00:51:05;12.73;;;9.60;;
54191;SDS011;40101;53.002;6.488;2023-03-23T00:53:37;12.07;;;9.27;;
54191;SDS011;40101;53.002;6.488;2023-03-23T00:56:07;10.13;;;9.02;;
54191;SDS011;40101;53.002;6.488;2023-03-23T00:58:33;13.95;;;8.93;;
54191;SDS011;40101;53.002;6.488;2023-03-23T01:00:59;11.20;;;8.95;;
54191;SDS011;40101;53.002;6.488;2023-03-23T01:03:25;15.18;;;9.52;;
54191;SDS011;40101;53.002;6.488;2023-03-23T01:05:53;14.73;;;9.50;;
54191;SDS011;40101;53.002;6.488;2023-03-23T01:08:19;13.10;;;10.30;;
54191;SDS011;40101;53.002;6.488;2023-03-23T01:10:46;18.02;;;10.15;;
54191;SDS011;40101;53.002;6.488;2023-03-23T01:13:13;12.30;;;8.27;;
54191;SDS011;40101;53.002;6.488;2023-03-23T01:15:40;12.00;;;8.52;;
54191;SDS011;40101;53.002;6.488;2023-03-23T01:18:06;10.77;;;6.57;;
54191;SDS011;40101;53.002;6.488;2023-03-23T01:20:33;8.63;;;7.00;;
54191;SDS011;40101;53.002;6.488;2023-03-23T01:23:00;9.93;;;6.47;;
54191;SDS011;40101;53.002;6.488;2023-03-23T01:25:27;11.98;;;6.70;;
54191;SDS011;40101;53.002;6.488;2023-03-23T01:27:54;9.35;;;6.32;;
54191;SDS011;40101;53.002;6.488;2023-03-23T01:30:20;13.27;;;6.35;;
54191;SDS011;40101;53.002;6.488;2023-03-23T01:32:46;9.77;;;6.18;;
54191;SDS011;40101;53.002;6.488;2023-03-23T01:35:12;9.50;;;6.20;;
54191;SDS011;40101;53.002;6.488;2023-03-23T01:37:38;11.25;;;7.03;;
54191;SDS011;40101;53.002;6.488;2023-03-23T01:40:05;13.35;;;6.53;;
54191;SDS011;40101;53.002;6.488;2023-03-23T01:42:33;10.38;;;5.75;;
54191;SDS011;40101;53.002;6.488;2023-03-23T01:47:45;13.18;;;6.55;;
54191;SDS011;40101;53.002;6.488;2023-03-23T01:50:13;12.10;;;6.10;;
54191;SDS011;40101;53.002;6.488;2023-03-23T01:52:39;9.52;;;5.47;;
54191;SDS011;40101;53.002;6.488;2023-03-23T01:55:06;10.98;;;5.45;;
54191;SDS011;40101;53.002;6.488;2023-03-23T01:57:32;11.23;;;6.15;;
54191;SDS011;40101;53.002;6.488;2023-03-23T02:00:00;10.18;;;5.55;;
54191;SDS011;40101;53.002;6.488;2023-03-23T02:02:35;6.72;;;5.00;;
54191;SDS011;40101;53.002;6.488;2023-03-23T02:05:04;10.77;;;5.35;;
54191;SDS011;40101;53.002;6.488;2023-03-23T02:07:35;8.30;;;5.40;;
54191;SDS011;40101;53.002;6.488;2023-03-23T02:10:01;11.20;;;6.38;;
54191;SDS011;40101;53.002;6.488;2023-03-23T02:12:27;8.93;;;4.55;;
54191;SDS011;40101;53.002;6.488;2023-03-23T02:14:53;7.80;;;5.20;;
54191;SDS011;40101;53.002;6.488;2023-03-23T02:20:23;11.00;;;5.55;;
54191;SDS011;40101;53.002;6.488;2023-03-23T02:23:21;11.60;;;4.88;;
54191;SDS011;40101;53.002;6.488;2023-03-23T02:37:13;7.65;;;4.15;;
54191;SDS011;40101;53.002;6.488;2023-03-23T02:39:52;9.70;;;4.25;;
54191;SDS011;40101;53.002;6.488;2023-03-23T02:42:41;7.38;;;4.38;;
54191;SDS011;40101;53.002;6.488;2023-03-23T02:45:10;8.10;;;4.40;;
54191;SDS011;40101;53.002;6.488;2023-03-23T02:47:37;7.90;;;4.25;;
54191;SDS011;40101;53.002;6.488;2023-03-23T02:50:06;8.93;;;3.70;;
54191;SDS011;40101;53.002;6.488;2023-03-23T02:52:34;8.18;;;4.43;;
54191;SDS011;40101;53.002;6.488;2023-03-23T02:55:04;6.60;;;4.05;;
54191;SDS011;40101;53.002;6.488;2023-03-23T02:57:31;7.82;;;4.00;;
54191;SDS011;40101;53.002;6.488;2023-03-23T02:59:57;7.75;;;4.47;;
54191;SDS011;40101;53.002;6.488;2023-03-23T03:02:23;6.57;;;4.05;;
54191;SDS011;40101;53.002;6.488;2023-03-23T03:10:37;8.10;;;3.80;;
54191;SDS011;40101;53.002;6.488;2023-03-23T03:13:13;5.82;;;3.70;;
54191;SDS011;40101;53.002;6.488;2023-03-23T03:15:55;11.82;;;3.70;;
54191;SDS011;40101;53.002;6.488;2023-03-23T03:18:30;9.30;;;3.75;;
54191;SDS011;40101;53.002;6.488;2023-03-23T03:21:06;6.43;;;3.33;;
54191;SDS011;40101;53.002;6.488;2023-03-23T03:23:35;6.73;;;3.47;;
54191;SDS011;40101;53.002;6.488;2023-03-23T03:26:03;8.25;;;3.95;;
54191;SDS011;40101;53.002;6.488;2023-03-23T03:28:31;7.43;;;3.40;;
54191;SDS011;40101;53.002;6.488;2023-03-23T03:30:57;4.35;;;3.17;;
54191;SDS011;40101;53.002;6.488;2023-03-23T03:33:27;8.82;;;3.47;;
54191;SDS011;40101;53.002;6.488;2023-03-23T03:35:56;8.20;;;4.78;;
54191;SDS011;40101;53.002;6.488;2023-03-23T03:38:24;8.85;;;3.83;;
54191;SDS011;40101;53.002;6.488;2023-03-23T03:40:51;4.40;;;3.40;;
54191;SDS011;40101;53.002;6.488;2023-03-23T03:43:17;6.00;;;3.88;;
54191;SDS011;40101;53.002;6.488;2023-03-23T03:45:43;6.65;;;3.80;;
54191;SDS011;40101;53.002;6.488;2023-03-23T03:48:09;6.10;;;3.88;;
54191;SDS011;40101;53.002;6.488;2023-03-23T03:50:35;6.78;;;4.40;;
54191;SDS011;40101;53.002;6.488;2023-03-23T03:53:01;7.00;;;4.07;;
54191;SDS011;40101;53.002;6.488;2023-03-23T03:55:28;6.95;;;4.57;;
54191;SDS011;40101;53.002;6.488;2023-03-23T03:57:54;7.57;;;4.30;;
54191;SDS011;40101;53.002;6.488;2023-03-23T04:00:20;6.53;;;4.63;;
54191;SDS011;40101;53.002;6.488;2023-03-23T04:02:48;6.70;;;4.10;;
54191;SDS011;40101;53.002;6.488;2023-03-23T04:05:19;6.32;;;4.18;;
54191;SDS011;40101;53.002;6.488;2023-03-23T04:07:46;8.23;;;4.60;;
54191;SDS011;40101;53.002;6.488;2023-03-23T04:10:16;8.57;;;5.03;;
54191;SDS011;40101;53.002;6.488;2023-03-23T04:12:44;9.50;;;4.80;;
54191;SDS011;40101;53.002;6.488;2023-03-23T04:15:10;8.60;;;4.20;;
54191;SDS011;40101;53.002;6.488;2023-03-23T04:17:36;7.10;;;3.95;;
54191;SDS011;40101;53.002;6.488;2023-03-23T04:20:03;8.18;;;4.72;;
54191;SDS011;40101;53.002;6.488;2023-03-23T04:22:33;9.55;;;4.78;;
54191;SDS011;40101;53.002;6.488;2023-03-23T04:25:00;8.07;;;4.57;;
54191;SDS011;40101;53.002;6.488;2023-03-23T04:27:29;8.98;;;4.65;;
54191;SDS011;40101;53.002;6.488;2023-03-23T04:29:55;11.52;;;5.05;;
54191;SDS011;40101;53.002;6.488;2023-03-23T04:32:22;7.60;;;4.60;;
54191;SDS011;40101;53.002;6.488;2023-03-23T04:34:50;10.75;;;5.88;;
54191;SDS011;40101;53.002;6.488;2023-03-23T04:37:15;12.43;;;5.53;;
54191;SDS011;40101;53.002;6.488;2023-03-23T04:39:41;6.63;;;3.50;;
54191;SDS011;40101;53.002;6.488;2023-03-23T04:42:10;8.75;;;3.42;;
54191;SDS011;40101;53.002;6.488;2023-03-23T04:44:36;7.50;;;3.72;;
54191;SDS011;40101;53.002;6.488;2023-03-23T04:47:06;6.75;;;3.03;;
54191;SDS011;40101;53.002;6.488;2023-03-23T04:49:34;7.50;;;3.30;;
54191;SDS011;40101;53.002;6.488;2023-03-23T04:52:01;7.68;;;2.85;;
54191;SDS011;40101;53.002;6.488;2023-03-23T04:54:27;9.73;;;3.08;;
54191;SDS011;40101;53.002;6.488;2023-03-23T04:56:54;5.97;;;2.55;;
54191;SDS011;40101;53.002;6.488;2023-03-23T04:59:19;7.28;;;3.33;;
54191;SDS011;40101;53.002;6.488;2023-03-23T05:01:46;12.35;;;3.97;;
54191;SDS011;40101;53.002;6.488;2023-03-23T05:04:12;5.10;;;2.88;;
54191;SDS011;40101;53.002;6.488;2023-03-23T05:06:41;9.20;;;4.15;;
54191;SDS011;40101;53.002;6.488;2023-03-23T05:09:10;6.50;;;2.83;;
54191;SDS011;40101;53.002;6.488;2023-03-23T05:11:37;6.35;;;2.72;;
54191;SDS011;40101;53.002;6.488;2023-03-23T05:14:03;7.00;;;2.33;;
54191;SDS011;40101;53.002;6.488;2023-03-23T05:16:29;8.40;;;2.90;;
54191;SDS011;40101;53.002;6.488;2023-03-23T05:18:55;5.75;;;1.85;;
54191;SDS011;40101;53.002;6.488;2023-03-23T05:21:24;10.07;;;2.60;;
54191;SDS011;40101;53.002;6.488;2023-03-23T05:23:51;6.97;;;2.55;;
54191;SDS011;40101;53.002;6.488;2023-03-23T05:26:22;9.65;;;2.85;;
54191;SDS011;40101;53.002;6.488;2023-03-23T05:28:50;9.35;;;2.80;;
54191;SDS011;40101;53.002;6.488;2023-03-23T05:31:18;14.80;;;3.30;;
54191;SDS011;40101;53.002;6.488;2023-03-23T05:33:44;11.00;;;2.80;;
54191;SDS011;40101;53.002;6.488;2023-03-23T05:36:10;11.32;;;3.42;;
54191;SDS011;40101;53.002;6.488;2023-03-23T05:38:41;13.68;;;3.60;;
54191;SDS011;40101;53.002;6.488;2023-03-23T05:41:13;15.48;;;3.72;;
54191;SDS011;40101;53.002;6.488;2023-03-23T05:43:39;16.77;;;3.60;;
54191;SDS011;40101;53.002;6.488;2023-03-23T05:46:08;13.00;;;3.67;;
54191;SDS011;40101;53.002;6.488;2023-03-23T05:48:37;14.30;;;4.22;;
54191;SDS011;40101;53.002;6.488;2023-03-23T05:51:03;10.82;;;3.03;;
54191;SDS011;40101;53.002;6.488;2023-03-23T05:53:29;14.70;;;4.32;;
54191;SDS011;40101;53.002;6.488;2023-03-23T05:56:02;16.52;;;4.57;;
54191;SDS011;40101;53.002;6.488;2023-03-23T05:58:28;17.55;;;4.10;;
54191;SDS011;40101;53.002;6.488;2023-03-23T06:00:54;14.18;;;3.03;;
54191;SDS011;40101;53.002;6.488;2023-03-23T06:03:20;12.43;;;3.58;;
54191;SDS011;40101;53.002;6.488;2023-03-23T06:05:47;13.43;;;3.47;;
54191;SDS011;40101;53.002;6.488;2023-03-23T06:08:13;15.80;;;3.50;;
54191;SDS011;40101;53.002;6.488;2023-03-23T06:10:42;19.35;;;4.35;;
54191;SDS011;40101;53.002;6.488;2023-03-23T06:13:09;13.70;;;3.83;;
54191;SDS011;40101;53.002;6.488;2023-03-23T06:15:34;13.63;;;3.25;;
54191;SDS011;40101;53.002;6.488;2023-03-23T06:18:03;16.23;;;4.43;;
54191;SDS011;40101;53.002;6.488;2023-03-23T06:20:35;15.48;;;3.92;;
54191;SDS011;40101;53.002;6.488;2023-03-23T06:23:01;11.20;;;3.65;;
54191;SDS011;40101;53.002;6.488;2023-03-23T06:25:28;12.48;;;3.75;;
54191;SDS011;40101;53.002;6.488;2023-03-23T06:27:54;16.05;;;3.75;;
54191;SDS011;40101;53.002;6.488;2023-03-23T06:30:20;19.92;;;3.40;;
54191;SDS011;40101;53.002;6.488;2023-03-23T06:32:46;16.48;;;4.82;;
54191;SDS011;40101;53.002;6.488;2023-03-23T06:35:12;12.93;;;3.60;;
54191;SDS011;40101;53.002;6.488;2023-03-23T06:37:40;11.60;;;3.85;;
54191;SDS011;40101;53.002;6.488;2023-03-23T06:40:06;12.93;;;4.68;;
54191;SDS011;40101;53.002;6.488;2023-03-23T06:42:33;15.07;;;4.30;;
54191;SDS011;40101;53.002;6.488;2023-03-23T06:44:59;17.35;;;4.95;;
54191;SDS011;40101;53.002;6.488;2023-03-23T06:47:26;17.08;;;3.63;;
54191;SDS011;40101;53.002;6.488;2023-03-23T06:49:56;13.05;;;3.70;;
54191;SDS011;40101;53.002;6.488;2023-03-23T06:52:22;15.18;;;4.30;;
54191;SDS011;40101;53.002;6.488;2023-03-23T06:54:49;24.25;;;4.88;;
54191;SDS011;40101;53.002;6.488;2023-03-23T06:57:15;11.90;;;4.22;;
54191;SDS011;40101;53.002;6.488;2023-03-23T06:59:41;19.58;;;4.63;;
54191;SDS011;40101;53.002;6.488;2023-03-23T07:02:09;22.08;;;5.15;;
54191;SDS011;40101;53.002;6.488;2023-03-23T07:04:39;17.92;;;4.70;;
54191;SDS011;40101;53.002;6.488;2023-03-23T07:07:07;17.95;;;5.43;;
54191;SDS011;40101;53.002;6.488;2023-03-23T07:09:33;17.35;;;4.78;;
54191;SDS011;40101;53.002;6.488;2023-03-23T07:19:22;22.23;;;5.63;;
54191;SDS011;40101;53.002;6.488;2023-03-23T07:25:50;27.02;;;5.15;;
54191;SDS011;40101;53.002;6.488;2023-03-23T07:28:20;21.90;;;5.35;;
54191;SDS011;40101;53.002;6.488;2023-03-23T07:37:42;25.50;;;6.47;;
54191;SDS011;40101;53.002;6.488;2023-03-23T07:40:08;18.95;;;4.32;;
54191;SDS011;40101;53.002;6.488;2023-03-23T07:43:02;18.27;;;4.65;;
54191;SDS011;40101;53.002;6.488;2023-03-23T07:45:27;22.17;;;5.25;;
54191;SDS011;40101;53.002;6.488;2023-03-23T07:47:54;20.38;;;5.13;;
54191;SDS011;40101;53.002;6.488;2023-03-23T07:50:20;21.35;;;5.53;;
54191;SDS011;40101;53.002;6.488;2023-03-23T07:53:11;24.48;;;5.20;;
54191;SDS011;40101;53.002;6.488;2023-03-23T07:55:41;18.58;;;4.68;;
54191;SDS011;40101;53.002;6.488;2023-03-23T07:58:06;22.08;;;5.85;;
54191;SDS011;40101;53.002;6.488;2023-03-23T08:00:33;20.75;;;5.85;;
54191;SDS011;40101;53.002;6.488;2023-03-23T08:03:00;20.77;;;5.88;;
54191;SDS011;40101;53.002;6.488;2023-03-23T08:05:36;32.70;;;6.40;;
54191;SDS011;40101;53.002;6.488;2023-03-23T08:08:07;21.10;;;5.57;;
54191;SDS011;40101;53.002;6.488;2023-03-23T08:10:34;23.15;;;5.80;;
54191;SDS011;40101;53.002;6.488;2023-03-23T08:13:01;17.90;;;4.88;;
54191;SDS011;40101;53.002;6.488;2023-03-23T08:15:28;21.23;;;5.45;;
54191;SDS011;40101;53.002;6.488;2023-03-23T08:17:57;19.38;;;5.03;;
54191;SDS011;40101;53.002;6.488;2023-03-23T08:20:24;18.75;;;5.45;;
54191;SDS011;40101;53.002;6.488;2023-03-23T08:22:54;22.40;;;5.43;;
54191;SDS011;40101;53.002;6.488;2023-03-23T08:25:22;22.90;;;6.47;;
54191;SDS011;40101;53.002;6.488;2023-03-23T08:27:49;24.10;;;6.13;;
54191;SDS011;40101;53.002;6.488;2023-03-23T08:30:16;26.13;;;6.45;;
54191;SDS011;40101;53.002;6.488;2023-03-23T08:32:44;24.13;;;6.07;;
54191;SDS011;40101;53.002;6.488;2023-03-23T08:35:11;23.52;;;7.40;;
54191;SDS011;40101;53.002;6.488;2023-03-23T08:37:38;28.17;;;7.32;;
54191;SDS011;40101;53.002;6.488;2023-03-23T08:40:04;25.75;;;6.93;;
54191;SDS011;40101;53.002;6.488;2023-03-23T08:42:38;25.25;;;6.05;;
54191;SDS011;40101;53.002;6.488;2023-03-23T08:45:06;29.38;;;6.68;;
54191;SDS011;40101;53.002;6.488;2023-03-23T08:47:34;24.42;;;6.32;;
54191;SDS011;40101;53.002;6.488;2023-03-23T08:50:02;24.65;;;5.85;;
54191;SDS011;40101;53.002;6.488;2023-03-23T08:52:28;27.23;;;6.70;;
54191;SDS011;40101;53.002;6.488;2023-03-23T08:54:54;25.10;;;6.35;;
54191;SDS011;40101;53.002;6.488;2023-03-23T08:57:22;24.80;;;5.97;;
54191;SDS011;40101;53.002;6.488;2023-03-23T08:59:49;27.23;;;7.22;;
54191;SDS011;40101;53.002;6.488;2023-03-23T09:02:15;28.30;;;7.10;;
54191;SDS011;40101;53.002;6.488;2023-03-23T09:04:41;24.60;;;6.78;;
54191;SDS011;40101;53.002;6.488;2023-03-23T09:07:12;26.30;;;6.90;;
54191;SDS011;40101;53.002;6.488;2023-03-23T09:09:41;25.77;;;6.90;;
54191;SDS011;40101;53.002;6.488;2023-03-23T09:12:10;25.30;;;5.90;;
54191;SDS011;40101;53.002;6.488;2023-03-23T09:14:38;20.60;;;6.20;;
54191;SDS011;40101;53.002;6.488;2023-03-23T09:17:05;24.75;;;6.40;;
54191;SDS011;40101;53.002;6.488;2023-03-23T09:19:32;22.30;;;5.97;;
54191;SDS011;40101;53.002;6.488;2023-03-23T09:21:59;15.98;;;5.90;;
54191;SDS011;40101;53.002;6.488;2023-03-23T09:24:25;24.88;;;6.18;;
54191;SDS011;40101;53.002;6.488;2023-03-23T09:26:52;30.02;;;6.97;;
54191;SDS011;40101;53.002;6.488;2023-03-23T09:29:17;24.15;;;6.65;;
54191;SDS011;40101;53.002;6.488;2023-03-23T09:31:43;21.13;;;5.78;;
54191;SDS011;40101;53.002;6.488;2023-03-23T09:34:11;21.85;;;6.00;;
54191;SDS011;40101;53.002;6.488;2023-03-23T09:36:40;20.30;;;6.05;;
54191;SDS011;40101;53.002;6.488;2023-03-23T09:39:06;18.85;;;5.05;;
54191;SDS011;40101;53.002;6.488;2023-03-23T09:44:39;21.73;;;6.30;;
54191;SDS011;40101;53.002;6.488;2023-03-23T09:50:07;21.20;;;5.43;;
54191;SDS011;40101;53.002;6.488;2023-03-23T09:52:39;16.52;;;5.35;;
54191;SDS011;40101;53.002;6.488;2023-03-23T09:55:13;21.98;;;4.75;;
54191;SDS011;40101;53.002;6.488;2023-03-23T09:58:04;20.25;;;4.53;;
54191;SDS011;40101;53.002;6.488;2023-03-23T10:00:47;20.52;;;6.15;;
54191;SDS011;40101;53.002;6.488;2023-03-23T10:03:28;17.15;;;5.88;;
54191;SDS011;40101;53.002;6.488;2023-03-23T10:05:58;20.05;;;5.18;;
54191;SDS011;40101;53.002;6.488;2023-03-23T10:08:25;20.55;;;5.25;;
54191;SDS011;40101;53.002;6.488;2023-03-23T10:16:49;13.52;;;4.65;;
54191;SDS011;40101;53.002;6.488;2023-03-23T10:22:09;17.10;;;5.22;;
54191;SDS011;40101;53.002;6.488;2023-03-23T10:24:45;17.20;;;4.30;;
54191;SDS011;40101;53.002;6.488;2023-03-23T10:27:28;19.85;;;4.60;;
54191;SDS011;40101;53.002;6.488;2023-03-23T10:30:02;14.45;;;4.05;;
54191;SDS011;40101;53.002;6.488;2023-03-23T10:32:40;19.60;;;4.38;;
54191;SDS011;40101;53.002;6.488;2023-03-23T10:38:48;13.90;;;4.28;;
54191;SDS011;40101;53.002;6.488;2023-03-23T10:41:22;16.75;;;5.10;;
54191;SDS011;40101;53.002;6.488;2023-03-23T10:43:47;11.15;;;4.15;;
54191;SDS011;40101;53.002;6.488;2023-03-23T10:46:36;14.45;;;4.75;;
54191;SDS011;40101;53.002;6.488;2023-03-23T10:49:19;18.48;;;4.55;;
54191;SDS011;40101;53.002;6.488;2023-03-23T10:54:46;15.32;;;4.13;;
54191;SDS011;40101;53.002;6.488;2023-03-23T10:57:25;10.40;;;3.45;;
54191;SDS011;40101;53.002;6.488;2023-03-23T10:59:59;12.48;;;4.10;;
54191;SDS011;40101;53.002;6.488;2023-03-23T11:02:44;8.30;;;3.08;;
54191;SDS011;40101;53.002;6.488;2023-03-23T11:07:55;12.57;;;3.47;;
54191;SDS011;40101;53.002;6.488;2023-03-23T11:12:50;11.75;;;3.85;;
54191;SDS011;40101;53.002;6.488;2023-03-23T11:15:24;16.50;;;4.25;;
54191;SDS011;40101;53.002;6.488;2023-03-23T11:17:57;13.25;;;3.38;;
54191;SDS011;40101;53.002;6.488;2023-03-23T11:20:37;17.90;;;4.53;;
54191;SDS011;40101;53.002;6.488;2023-03-23T11:23:15;12.85;;;3.72;;
54191;SDS011;40101;53.002;6.488;2023-03-23T11:28:38;17.10;;;3.25;;
54191;SDS011;40101;53.002;6.488;2023-03-23T11:31:28;15.40;;;3.83;;
54191;SDS011;40101;53.002;6.488;2023-03-23T13:39:23;14.38;;;3.40;;
54191;SDS011;40101;53.002;6.488;2023-03-23T16:20:45;15.98;;;3.58;;
54191;SDS011;40101;53.002;6.488;2023-03-23T16:23:13;16.35;;;4.20;;
54191;SDS011;40101;53.002;6.488;2023-03-23T16:25:39;16.98;;;3.22;;
54191;SDS011;40101;53.002;6.488;2023-03-23T16:28:07;12.52;;;3.45;;
54191;SDS011;40101;53.002;6.488;2023-03-23T16:30:35;14.02;;;3.30;;
54191;SDS011;40101;53.002;6.488;2023-03-23T16:33:07;9.95;;;3.60;;
54191;SDS011;40101;53.002;6.488;2023-03-23T16:35:38;13.18;;;3.63;;
54191;SDS011;40101;53.002;6.488;2023-03-23T16:38:05;13.75;;;3.65;;
54191;SDS011;40101;53.002;6.488;2023-03-23T16:56:39;10.40;;;2.85;;
54191;SDS011;40101;53.002;6.488;2023-03-23T16:59:04;11.57;;;4.20;;
54191;SDS011;40101;53.002;6.488;2023-03-23T17:01:30;12.32;;;3.53;;
54191;SDS011;40101;53.002;6.488;2023-03-23T17:03:57;10.50;;;3.33;;
54191;SDS011;40101;53.002;6.488;2023-03-23T17:06:23;13.98;;;3.83;;
54191;SDS011;40101;53.002;6.488;2023-03-23T17:08:57;18.25;;;4.07;;
54191;SDS011;40101;53.002;6.488;2023-03-23T17:11:23;11.68;;;3.20;;
54191;SDS011;40101;53.002;6.488;2023-03-23T17:13:49;10.38;;;3.05;;
54191;SDS011;40101;53.002;6.488;2023-03-23T17:16:14;14.07;;;4.20;;
54191;SDS011;40101;53.002;6.488;2023-03-23T17:18:40;15.18;;;3.78;;
54191;SDS011;40101;53.002;6.488;2023-03-23T17:21:06;12.52;;;3.58;;
54191;SDS011;40101;53.002;6.488;2023-03-23T17:23:33;11.65;;;3.35;;
54191;SDS011;40101;53.002;6.488;2023-03-23T17:25:59;18.30;;;4.38;;
54191;SDS011;40101;53.002;6.488;2023-03-23T17:28:25;11.45;;;3.78;;
54191;SDS011;40101;53.002;6.488;2023-03-23T17:30:51;15.32;;;3.75;;
54191;SDS011;40101;53.002;6.488;2023-03-23T17:33:17;15.70;;;4.25;;
54191;SDS011;40101;53.002;6.488;2023-03-23T17:35:44;18.55;;;5.30;;
54191;SDS011;40101;53.002;6.488;2023-03-23T17:38:16;20.02;;;4.35;;
54191;SDS011;40101;53.002;6.488;2023-03-23T17:40:42;17.38;;;3.95;;
54191;SDS011;40101;53.002;6.488;2023-03-23T17:43:11;9.25;;;3.63;;
54191;SDS011;40101;53.002;6.488;2023-03-23T17:45:36;17.27;;;3.83;;
54191;SDS011;40101;53.002;6.488;2023-03-23T17:48:03;17.05;;;4.15;;
54191;SDS011;40101;53.002;6.488;2023-03-23T17:50:32;14.77;;;4.75;;
54191;SDS011;40101;53.002;6.488;2023-03-23T17:52:58;15.90;;;4.38;;
54191;SDS011;40101;53.002;6.488;2023-03-23T17:55:25;14.40;;;4.45;;
54191;SDS011;40101;53.002;6.488;2023-03-23T17:57:51;14.32;;;4.13;;
54191;SDS011;40101;53.002;6.488;2023-03-23T18:00:17;11.95;;;3.15;;
54191;SDS011;40101;53.002;6.488;2023-03-23T18:02:43;15.15;;;3.22;;
54191;SDS011;40101;53.002;6.488;2023-03-23T18:05:09;11.15;;;3.47;;
54191;SDS011;40101;53.002;6.488;2023-03-23T18:07:35;15.05;;;3.80;;
54191;SDS011;40101;53.002;6.488;2023-03-23T18:10:02;11.48;;;3.80;;
54191;SDS011;40101;53.002;6.488;2023-03-23T18:12:30;13.93;;;3.53;;
54191;SDS011;40101;53.002;6.488;2023-03-23T18:14:56;7.47;;;2.75;;
54191;SDS011;40101;53.002;6.488;2023-03-23T18:17:22;7.95;;;2.72;;
54191;SDS011;40101;53.002;6.488;2023-03-23T18:19:48;6.57;;;2.42;;
54191;SDS011;40101;53.002;6.488;2023-03-23T18:22:14;9.65;;;2.50;;
54191;SDS011;40101;53.002;6.488;2023-03-23T18:24:43;9.05;;;2.35;;
54191;SDS011;40101;53.002;6.488;2023-03-23T18:27:09;8.20;;;2.42;;
54191;SDS011;40101;53.002;6.488;2023-03-23T18:29:35;10.80;;;2.63;;
54191;SDS011;40101;53.002;6.488;2023-03-23T18:32:01;10.02;;;2.00;;
54191;SDS011;40101;53.002;6.488;2023-03-23T18:34:26;9.43;;;2.80;;
54191;SDS011;40101;53.002;6.488;2023-03-23T18:36:56;7.78;;;2.33;;
54191;SDS011;40101;53.002;6.488;2023-03-23T18:39:21;9.02;;;2.17;;
54191;SDS011;40101;53.002;6.488;2023-03-23T18:41:47;6.80;;;2.78;;
54191;SDS011;40101;53.002;6.488;2023-03-23T18:44:15;8.05;;;2.40;;
54191;SDS011;40101;53.002;6.488;2023-03-23T18:46:41;8.63;;;2.67;;
54191;SDS011;40101;53.002;6.488;2023-03-23T18:49:18;8.73;;;2.55;;
54191;SDS011;40101;53.002;6.488;2023-03-23T18:51:44;11.65;;;2.58;;
54191;SDS011;40101;53.002;6.488;2023-03-23T18:54:12;8.38;;;2.42;;
54191;SDS011;40101;53.002;6.488;2023-03-23T18:56:41;7.90;;;2.55;;
54191;SDS011;40101;53.002;6.488;2023-03-23T18:59:12;8.52;;;2.40;;
54191;SDS011;40101;53.002;6.488;2023-03-23T19:04:36;11.30;;;3.88;;
54191;SDS011;40101;53.002;6.488;2023-03-23T19:07:03;11.60;;;3.05;;
54191;SDS011;40101;53.002;6.488;2023-03-23T19:09:41;16.23;;;3.95;;
54191;SDS011;40101;53.002;6.488;2023-03-23T19:12:11;8.93;;;2.30;;
54191;SDS011;40101;53.002;6.488;2023-03-23T19:14:39;11.85;;;2.72;;
54191;SDS011;40101;53.002;6.488;2023-03-23T19:17:05;10.38;;;3.20;;
54191;SDS011;40101;53.002;6.488;2023-03-23T19:23:27;16.73;;;3.50;;
54191;SDS011;40101;53.002;6.488;2023-03-23T19:26:08;8.43;;;3.13;;
54191;SDS011;40101;53.002;6.488;2023-03-23T19:32:00;6.85;;;2.72;;
54191;SDS011;40101;53.002;6.488;2023-03-23T19:34:27;8.40;;;2.97;;
54191;SDS011;40101;53.002;6.488;2023-03-23T19:36:59;13.90;;;3.08;;
54191;SDS011;40101;53.002;6.488;2023-03-23T19:39:24;7.15;;;3.25;;
54191;SDS011;40101;53.002;6.488;2023-03-23T19:41:50;13.60;;;4.10;;
54191;SDS011;40101;53.002;6.488;2023-03-23T19:44:17;12.77;;;3.78;;
54191;SDS011;40101;53.002;6.488;2023-03-23T19:46:44;12.43;;;4.03;;
54191;SDS011;40101;53.002;6.488;2023-03-23T19:49:10;9.80;;;3.67;;
54191;SDS011;40101;53.002;6.488;2023-03-23T19:51:35;9.10;;;3.97;;
54191;SDS011;40101;53.002;6.488;2023-03-23T19:54:01;10.88;;;3.22;;
54191;SDS011;40101;53.002;6.488;2023-03-23T19:56:27;10.43;;;3.75;;
54191;SDS011;40101;53.002;6.488;2023-03-23T19:58:54;8.88;;;3.47;;
54191;SDS011;40101;53.002;6.488;2023-03-23T20:01:20;9.20;;;4.10;;
54191;SDS011;40101;53.002;6.488;2023-03-23T20:03:46;8.35;;;4.40;;
54191;SDS011;40101;53.002;6.488;2023-03-23T20:06:13;9.23;;;4.38;;
54191;SDS011;40101;53.002;6.488;2023-03-23T20:08:42;9.20;;;4.47;;
54191;SDS011;40101;53.002;6.488;2023-03-23T20:11:11;13.95;;;3.72;;
54191;SDS011;40101;53.002;6.488;2023-03-23T20:13:41;14.27;;;4.55;;
54191;SDS011;40101;53.002;6.488;2023-03-23T20:16:08;10.18;;;3.90;;
54191;SDS011;40101;53.002;6.488;2023-03-23T20:18:45;10.18;;;4.00;;
54191;SDS011;40101;53.002;6.488;2023-03-23T20:21:15;11.07;;;3.97;;
54191;SDS011;40101;53.002;6.488;2023-03-23T20:23:47;9.60;;;4.03;;
54191;SDS011;40101;53.002;6.488;2023-03-23T20:26:24;11.15;;;3.72;;
54191;SDS011;40101;53.002;6.488;2023-03-23T20:29:13;9.82;;;4.35;;
54191;SDS011;40101;53.002;6.488;2023-03-23T20:34:10;11.25;;;3.97;;
54191;SDS011;40101;53.002;6.488;2023-03-23T20:36:42;12.65;;;4.90;;
54191;SDS011;40101;53.002;6.488;2023-03-23T20:39:17;9.00;;;4.55;;
54191;SDS011;40101;53.002;6.488;2023-03-23T20:41:46;9.55;;;3.95;;
54191;SDS011;40101;53.002;6.488;2023-03-23T20:44:17;14.68;;;4.50;;
54191;SDS011;40101;53.002;6.488;2023-03-23T20:47:22;11.48;;;4.78;;
54191;SDS011;40101;53.002;6.488;2023-03-23T20:50:03;16.23;;;5.38;;
54191;SDS011;40101;53.002;6.488;2023-03-23T20:52:30;15.07;;;4.88;;
54191;SDS011;40101;53.002;6.488;2023-03-23T20:55:46;12.20;;;5.00;;
54191;SDS011;40101;53.002;6.488;2023-03-23T20:59:02;14.05;;;5.30;;
54191;SDS011;40101;53.002;6.488;2023-03-23T21:01:29;13.23;;;4.78;;
54191;SDS011;40101;53.002;6.488;2023-03-23T21:03:57;13.60;;;5.03;;
54191;SDS011;40101;53.002;6.488;2023-03-23T21:06:24;17.10;;;5.78;;
54191;SDS011;40101;53.002;6.488;2023-03-23T21:09:00;13.48;;;5.20;;
54191;SDS011;40101;53.002;6.488;2023-03-23T21:11:33;15.85;;;6.20;;
54191;SDS011;40101;53.002;6.488;2023-03-23T21:14:00;13.48;;;6.15;;